sensor_id;sensor_type;location;lat;lon;timestamp;P1;durP1;ratioP1;P2;durP2;ratioP2
55202;SDS011;41077;52.956;6.796;2023-06-26T00:01:19;9.90;;;7.20;;
55202;SDS011;41077;52.956;6.796;2023-06-26T00:03:46;12.27;;;7.50;;
55202;SDS011;41077;52.956;6.796;2023-06-26T00:06:12;8.95;;;7.80;;
55202;SDS011;41077;52.956;6.796;2023-06-26T00:08:39;9.02;;;7.45;;
55202;SDS011;41077;52.956;6.796;2023-06-26T00:11:05;9.25;;;7.95;;
55202;SDS011;41077;52.956;6.796;2023-06-26T00:13:31;7.93;;;7.13;;
55202;SDS011;41077;52.956;6.796;2023-06-26T00:15:57;8.88;;;7.60;;
55202;SDS011;41077;52.956;6.796;2023-06-26T00:18:28;9.13;;;8.13;;
55202;SDS011;41077;52.956;6.796;2023-06-26T00:20:54;7.95;;;7.18;;
55202;SDS011;41077;52.956;6.796;2023-06-26T00:23:20;10.43;;;7.65;;
55202;SDS011;41077;52.956;6.796;2023-06-26T00:25:46;8.98;;;8.07;;
55202;SDS011;41077;52.956;6.796;2023-06-26T00:28:12;10.77;;;8.13;;
55202;SDS011;41077;52.956;6.796;2023-06-26T00:30:38;9.07;;;8.18;;
55202;SDS011;41077;52.956;6.796;2023-06-26T00:33:04;9.18;;;8.30;;
55202;SDS011;41077;52.956;6.796;2023-06-26T00:35:30;9.88;;;8.15;;
55202;SDS011;41077;52.956;6.796;2023-06-26T00:37:56;8.50;;;7.38;;
55202;SDS011;41077;52.956;6.796;2023-06-26T00:40:22;9.13;;;7.90;;
55202;SDS011;41077;52.956;6.796;2023-06-26T00:42:49;11.02;;;7.90;;
55202;SDS011;41077;52.956;6.796;2023-06-26T00:45:15;12.45;;;8.30;;
55202;SDS011;41077;52.956;6.796;2023-06-26T00:47:41;8.45;;;7.65;;
55202;SDS011;41077;52.956;6.796;2023-06-26T00:50:07;8.60;;;7.68;;
55202;SDS011;41077;52.956;6.796;2023-06-26T00:57:54;8.80;;;8.00;;
55202;SDS011;41077;52.956;6.796;2023-06-26T01:00:20;8.20;;;7.40;;
55202;SDS011;41077;52.956;6.796;2023-06-26T01:05:49;8.77;;;7.88;;
55202;SDS011;41077;52.956;6.796;2023-06-26T01:08:16;11.00;;;7.95;;
55202;SDS011;41077;52.956;6.796;2023-06-26T01:10:43;10.20;;;8.95;;
55202;SDS011;41077;52.956;6.796;2023-06-26T01:13:10;10.68;;;8.38;;
55202;SDS011;41077;52.956;6.796;2023-06-26T01:15:37;9.75;;;8.52;;
55202;SDS011;41077;52.956;6.796;2023-06-26T01:18:03;8.77;;;7.97;;
55202;SDS011;41077;52.956;6.796;2023-06-26T01:20:36;9.25;;;8.32;;
55202;SDS011;41077;52.956;6.796;2023-06-26T01:28:15;9.23;;;8.00;;
55202;SDS011;41077;52.956;6.796;2023-06-26T01:30:43;8.75;;;7.93;;
55202;SDS011;41077;52.956;6.796;2023-06-26T01:33:10;10.40;;;8.27;;
55202;SDS011;41077;52.956;6.796;2023-06-26T01:35:36;8.55;;;7.53;;
55202;SDS011;41077;52.956;6.796;2023-06-26T01:38:15;9.07;;;8.05;;
55202;SDS011;41077;52.956;6.796;2023-06-26T01:40:41;9.30;;;8.20;;
55202;SDS011;41077;52.956;6.796;2023-06-26T01:43:11;10.18;;;8.43;;
55202;SDS011;41077;52.956;6.796;2023-06-26T01:45:38;9.35;;;8.45;;
55202;SDS011;41077;52.956;6.796;2023-06-26T01:48:04;13.50;;;9.15;;
55202;SDS011;41077;52.956;6.796;2023-06-26T01:50:32;10.73;;;8.40;;
55202;SDS011;41077;52.956;6.796;2023-06-26T01:53:04;10.00;;;8.07;;
55202;SDS011;41077;52.956;6.796;2023-06-26T01:55:53;9.48;;;8.00;;
55202;SDS011;41077;52.956;6.796;2023-06-26T01:58:17;9.25;;;8.32;;
55202;SDS011;41077;52.956;6.796;2023-06-26T02:00:45;9.98;;;7.55;;
55202;SDS011;41077;52.956;6.796;2023-06-26T02:03:11;9.75;;;8.75;;
55202;SDS011;41077;52.956;6.796;2023-06-26T02:05:37;9.30;;;8.43;;
55202;SDS011;41077;52.956;6.796;2023-06-26T02:08:04;8.90;;;7.95;;
55202;SDS011;41077;52.956;6.796;2023-06-26T02:10:30;9.35;;;8.32;;
55202;SDS011;41077;52.956;6.796;2023-06-26T02:12:56;10.35;;;9.30;;
55202;SDS011;41077;52.956;6.796;2023-06-26T02:15:22;10.13;;;9.05;;
55202;SDS011;41077;52.956;6.796;2023-06-26T02:17:48;10.02;;;8.88;;
55202;SDS011;41077;52.956;6.796;2023-06-26T02:20:15;10.00;;;9.00;;
55202;SDS011;41077;52.956;6.796;2023-06-26T02:22:41;9.93;;;8.95;;
55202;SDS011;41077;52.956;6.796;2023-06-26T02:25:07;10.05;;;9.02;;
55202;SDS011;41077;52.956;6.796;2023-06-26T02:27:34;8.63;;;7.82;;
55202;SDS011;41077;52.956;6.796;2023-06-26T02:30:00;11.30;;;9.18;;
55202;SDS011;41077;52.956;6.796;2023-06-26T02:32:26;9.63;;;8.70;;
55202;SDS011;41077;52.956;6.796;2023-06-26T02:34:52;9.98;;;8.85;;
55202;SDS011;41077;52.956;6.796;2023-06-26T02:37:19;9.82;;;8.82;;
55202;SDS011;41077;52.956;6.796;2023-06-26T02:39:45;9.93;;;8.65;;
55202;SDS011;41077;52.956;6.796;2023-06-26T02:42:11;10.45;;;9.05;;
55202;SDS011;41077;52.956;6.796;2023-06-26T02:44:37;10.05;;;9.15;;
55202;SDS011;41077;52.956;6.796;2023-06-26T02:47:03;9.77;;;8.85;;
55202;SDS011;41077;52.956;6.796;2023-06-26T02:49:29;11.10;;;9.98;;
55202;SDS011;41077;52.956;6.796;2023-06-26T02:51:55;11.43;;;10.20;;
55202;SDS011;41077;52.956;6.796;2023-06-26T02:54:21;12.55;;;10.27;;
55202;SDS011;41077;52.956;6.796;2023-06-26T02:56:47;11.95;;;9.55;;
55202;SDS011;41077;52.956;6.796;2023-06-26T02:59:14;12.18;;;10.60;;
55202;SDS011;41077;52.956;6.796;2023-06-26T03:01:40;12.02;;;9.77;;
55202;SDS011;41077;52.956;6.796;2023-06-26T03:04:06;13.52;;;10.85;;
55202;SDS011;41077;52.956;6.796;2023-06-26T03:06:32;12.48;;;10.68;;
55202;SDS011;41077;52.956;6.796;2023-06-26T03:08:58;12.45;;;11.15;;
55202;SDS011;41077;52.956;6.796;2023-06-26T03:11:24;15.43;;;11.65;;
55202;SDS011;41077;52.956;6.796;2023-06-26T03:13:50;12.02;;;10.82;;
55202;SDS011;41077;52.956;6.796;2023-06-26T03:16:16;12.93;;;10.82;;
55202;SDS011;41077;52.956;6.796;2023-06-26T03:18:42;12.23;;;11.02;;
55202;SDS011;41077;52.956;6.796;2023-06-26T03:21:08;19.13;;;13.00;;
55202;SDS011;41077;52.956;6.796;2023-06-26T03:23:35;13.20;;;11.82;;
55202;SDS011;41077;52.956;6.796;2023-06-26T03:26:01;12.77;;;11.57;;
55202;SDS011;41077;52.956;6.796;2023-06-26T03:28:27;13.80;;;12.38;;
55202;SDS011;41077;52.956;6.796;2023-06-26T03:30:53;13.57;;;12.15;;
55202;SDS011;41077;52.956;6.796;2023-06-26T03:33:19;13.48;;;12.18;;
55202;SDS011;41077;52.956;6.796;2023-06-26T03:35:45;16.05;;;12.88;;
55202;SDS011;41077;52.956;6.796;2023-06-26T03:38:11;13.80;;;12.40;;
55202;SDS011;41077;52.956;6.796;2023-06-26T03:40:37;14.95;;;13.07;;
55202;SDS011;41077;52.956;6.796;2023-06-26T03:43:03;14.95;;;12.80;;
55202;SDS011;41077;52.956;6.796;2023-06-26T03:45:29;14.90;;;13.40;;
55202;SDS011;41077;52.956;6.796;2023-06-26T03:47:55;14.75;;;13.25;;
55202;SDS011;41077;52.956;6.796;2023-06-26T03:50:22;14.13;;;12.63;;
55202;SDS011;41077;52.956;6.796;2023-06-26T03:52:48;14.00;;;12.30;;
55202;SDS011;41077;52.956;6.796;2023-06-26T03:55:15;14.73;;;11.88;;
55202;SDS011;41077;52.956;6.796;2023-06-26T03:57:41;19.00;;;13.07;;
55202;SDS011;41077;52.956;6.796;2023-06-26T04:00:07;14.57;;;12.57;;
55202;SDS011;41077;52.956;6.796;2023-06-26T04:02:34;14.32;;;11.68;;
55202;SDS011;41077;52.956;6.796;2023-06-26T04:05:00;14.27;;;11.43;;
55202;SDS011;41077;52.956;6.796;2023-06-26T04:07:28;13.30;;;11.65;;
55202;SDS011;41077;52.956;6.796;2023-06-26T04:09:54;11.88;;;10.45;;
55202;SDS011;41077;52.956;6.796;2023-06-26T04:12:20;16.92;;;10.80;;
55202;SDS011;41077;52.956;6.796;2023-06-26T04:14:46;15.02;;;9.80;;
55202;SDS011;41077;52.956;6.796;2023-06-26T04:17:12;11.63;;;9.98;;
55202;SDS011;41077;52.956;6.796;2023-06-26T04:19:37;11.10;;;10.00;;
55202;SDS011;41077;52.956;6.796;2023-06-26T04:22:03;11.50;;;9.70;;
55202;SDS011;41077;52.956;6.796;2023-06-26T04:24:29;12.18;;;9.90;;
55202;SDS011;41077;52.956;6.796;2023-06-26T04:26:55;10.60;;;8.88;;
55202;SDS011;41077;52.956;6.796;2023-06-26T04:29:23;15.15;;;10.25;;
55202;SDS011;41077;52.956;6.796;2023-06-26T04:31:53;15.25;;;9.15;;
55202;SDS011;41077;52.956;6.796;2023-06-26T04:34:23;12.90;;;9.48;;
55202;SDS011;41077;52.956;6.796;2023-06-26T04:36:49;11.10;;;9.23;;
55202;SDS011;41077;52.956;6.796;2023-06-26T04:39:15;12.15;;;9.65;;
55202;SDS011;41077;52.956;6.796;2023-06-26T04:41:41;13.55;;;9.30;;
55202;SDS011;41077;52.956;6.796;2023-06-26T04:44:07;11.00;;;9.43;;
55202;SDS011;41077;52.956;6.796;2023-06-26T04:46:32;12.48;;;9.77;;
55202;SDS011;41077;52.956;6.796;2023-06-26T04:48:58;10.95;;;9.70;;
55202;SDS011;41077;52.956;6.796;2023-06-26T04:51:27;12.80;;;9.43;;
55202;SDS011;41077;52.956;6.796;2023-06-26T04:53:54;17.17;;;10.60;;
55202;SDS011;41077;52.956;6.796;2023-06-26T04:56:19;15.63;;;10.10;;
55202;SDS011;41077;52.956;6.796;2023-06-26T04:58:45;12.40;;;9.93;;
55202;SDS011;41077;52.956;6.796;2023-06-26T05:01:11;11.30;;;9.50;;
55202;SDS011;41077;52.956;6.796;2023-06-26T05:03:38;15.30;;;10.13;;
55202;SDS011;41077;52.956;6.796;2023-06-26T05:06:04;13.88;;;9.13;;
55202;SDS011;41077;52.956;6.796;2023-06-26T05:08:30;12.27;;;9.40;;
55202;SDS011;41077;52.956;6.796;2023-06-26T05:10:56;12.38;;;9.80;;
55202;SDS011;41077;52.956;6.796;2023-06-26T05:13:25;14.63;;;9.32;;
55202;SDS011;41077;52.956;6.796;2023-06-26T05:15:51;16.65;;;9.35;;
55202;SDS011;41077;52.956;6.796;2023-06-26T05:18:18;18.08;;;8.85;;
55202;SDS011;41077;52.956;6.796;2023-06-26T05:20:44;12.93;;;7.88;;
55202;SDS011;41077;52.956;6.796;2023-06-26T05:23:13;14.27;;;8.57;;
55202;SDS011;41077;52.956;6.796;2023-06-26T05:25:41;17.25;;;8.50;;
55202;SDS011;41077;52.956;6.796;2023-06-26T05:28:07;14.85;;;9.10;;
55202;SDS011;41077;52.956;6.796;2023-06-26T05:30:35;14.68;;;8.07;;
55202;SDS011;41077;52.956;6.796;2023-06-26T05:33:02;17.90;;;9.02;;
55202;SDS011;41077;52.956;6.796;2023-06-26T05:35:29;21.10;;;8.93;;
55202;SDS011;41077;52.956;6.796;2023-06-26T05:37:55;17.48;;;8.07;;
55202;SDS011;41077;52.956;6.796;2023-06-26T05:40:22;13.70;;;8.88;;
55202;SDS011;41077;52.956;6.796;2023-06-26T05:42:48;13.45;;;7.70;;
55202;SDS011;41077;52.956;6.796;2023-06-26T05:45:14;18.55;;;9.63;;
55202;SDS011;41077;52.956;6.796;2023-06-26T05:47:40;14.90;;;8.60;;
55202;SDS011;41077;52.956;6.796;2023-06-26T05:50:07;15.43;;;8.75;;
55202;SDS011;41077;52.956;6.796;2023-06-26T05:52:34;16.45;;;8.95;;
55202;SDS011;41077;52.956;6.796;2023-06-26T05:55:00;18.30;;;9.38;;
55202;SDS011;41077;52.956;6.796;2023-06-26T05:57:27;20.48;;;8.23;;
55202;SDS011;41077;52.956;6.796;2023-06-26T05:59:53;14.63;;;8.60;;
55202;SDS011;41077;52.956;6.796;2023-06-26T06:02:20;17.88;;;8.75;;
55202;SDS011;41077;52.956;6.796;2023-06-26T06:04:46;15.63;;;8.65;;
55202;SDS011;41077;52.956;6.796;2023-06-26T06:07:12;11.52;;;7.60;;
55202;SDS011;41077;52.956;6.796;2023-06-26T06:09:37;15.60;;;8.60;;
55202;SDS011;41077;52.956;6.796;2023-06-26T06:12:04;16.52;;;8.93;;
55202;SDS011;41077;52.956;6.796;2023-06-26T06:14:31;22.42;;;9.07;;
55202;SDS011;41077;52.956;6.796;2023-06-26T06:16:57;12.98;;;6.80;;
55202;SDS011;41077;52.956;6.796;2023-06-26T06:19:23;17.00;;;7.45;;
55202;SDS011;41077;52.956;6.796;2023-06-26T06:21:49;12.88;;;7.60;;
55202;SDS011;41077;52.956;6.796;2023-06-26T06:24:15;18.95;;;7.63;;
55202;SDS011;41077;52.956;6.796;2023-06-26T06:26:40;13.02;;;6.75;;
55202;SDS011;41077;52.956;6.796;2023-06-26T06:29:06;13.10;;;7.53;;
55202;SDS011;41077;52.956;6.796;2023-06-26T06:31:32;11.35;;;6.68;;
55202;SDS011;41077;52.956;6.796;2023-06-26T06:33:57;12.40;;;6.28;;
55202;SDS011;41077;52.956;6.796;2023-06-26T06:36:23;11.13;;;6.03;;
55202;SDS011;41077;52.956;6.796;2023-06-26T06:38:49;13.15;;;6.50;;
55202;SDS011;41077;52.956;6.796;2023-06-26T06:41:14;13.95;;;6.50;;
55202;SDS011;41077;52.956;6.796;2023-06-26T06:43:41;15.35;;;5.85;;
55202;SDS011;41077;52.956;6.796;2023-06-26T06:46:07;11.23;;;5.55;;
55202;SDS011;41077;52.956;6.796;2023-06-26T06:48:33;8.60;;;4.28;;
55202;SDS011;41077;52.956;6.796;2023-06-26T06:50:59;19.60;;;5.45;;
55202;SDS011;41077;52.956;6.796;2023-06-26T06:53:25;11.02;;;5.13;;
55202;SDS011;41077;52.956;6.796;2023-06-26T06:55:51;11.35;;;4.25;;
55202;SDS011;41077;52.956;6.796;2023-06-26T06:58:17;10.88;;;4.65;;
55202;SDS011;41077;52.956;6.796;2023-06-26T07:00:44;11.50;;;4.30;;
55202;SDS011;41077;52.956;6.796;2023-06-26T07:03:10;11.10;;;4.80;;
55202;SDS011;41077;52.956;6.796;2023-06-26T07:05:36;13.93;;;4.10;;
55202;SDS011;41077;52.956;6.796;2023-06-26T07:08:03;12.63;;;4.05;;
55202;SDS011;41077;52.956;6.796;2023-06-26T07:10:29;9.65;;;4.00;;
55202;SDS011;41077;52.956;6.796;2023-06-26T07:12:56;10.05;;;3.65;;
55202;SDS011;41077;52.956;6.796;2023-06-26T07:15:21;10.73;;;3.85;;
55202;SDS011;41077;52.956;6.796;2023-06-26T07:17:47;12.52;;;4.07;;
55202;SDS011;41077;52.956;6.796;2023-06-26T07:20:12;10.50;;;4.20;;
55202;SDS011;41077;52.956;6.796;2023-06-26T07:22:41;10.63;;;4.00;;
55202;SDS011;41077;52.956;6.796;2023-06-26T07:25:07;8.23;;;2.92;;
55202;SDS011;41077;52.956;6.796;2023-06-26T07:27:34;11.30;;;4.03;;
55202;SDS011;41077;52.956;6.796;2023-06-26T07:30:01;8.90;;;3.30;;
55202;SDS011;41077;52.956;6.796;2023-06-26T07:32:26;8.48;;;2.92;;
55202;SDS011;41077;52.956;6.796;2023-06-26T07:34:52;9.45;;;3.10;;
55202;SDS011;41077;52.956;6.796;2023-06-26T07:37:18;5.43;;;2.90;;
55202;SDS011;41077;52.956;6.796;2023-06-26T07:39:43;8.77;;;2.95;;
55202;SDS011;41077;52.956;6.796;2023-06-26T07:42:09;8.82;;;2.80;;
55202;SDS011;41077;52.956;6.796;2023-06-26T07:44:35;9.40;;;2.92;;
55202;SDS011;41077;52.956;6.796;2023-06-26T07:47:01;11.50;;;3.70;;
55202;SDS011;41077;52.956;6.796;2023-06-26T07:49:27;8.60;;;2.80;;
55202;SDS011;41077;52.956;6.796;2023-06-26T07:51:53;7.82;;;2.45;;
55202;SDS011;41077;52.956;6.796;2023-06-26T07:54:18;7.35;;;2.78;;
55202;SDS011;41077;52.956;6.796;2023-06-26T07:56:54;9.25;;;3.08;;
55202;SDS011;41077;52.956;6.796;2023-06-26T07:59:28;7.13;;;2.67;;
55202;SDS011;41077;52.956;6.796;2023-06-26T08:01:55;8.40;;;2.58;;
55202;SDS011;41077;52.956;6.796;2023-06-26T08:04:22;11.77;;;2.42;;
55202;SDS011;41077;52.956;6.796;2023-06-26T08:06:50;5.95;;;2.63;;
55202;SDS011;41077;52.956;6.796;2023-06-26T08:09:18;8.70;;;2.38;;
55202;SDS011;41077;52.956;6.796;2023-06-26T08:11:45;9.38;;;2.20;;
55202;SDS011;41077;52.956;6.796;2023-06-26T08:14:10;9.52;;;2.17;;
55202;SDS011;41077;52.956;6.796;2023-06-26T08:16:40;10.80;;;2.63;;
55202;SDS011;41077;52.956;6.796;2023-06-26T08:19:06;5.43;;;2.65;;
55202;SDS011;41077;52.956;6.796;2023-06-26T08:21:33;9.45;;;2.95;;
55202;SDS011;41077;52.956;6.796;2023-06-26T08:23:58;9.55;;;3.35;;
55202;SDS011;41077;52.956;6.796;2023-06-26T08:26:24;9.38;;;2.42;;
55202;SDS011;41077;52.956;6.796;2023-06-26T08:28:50;11.13;;;2.75;;
55202;SDS011;41077;52.956;6.796;2023-06-26T08:31:16;11.90;;;3.47;;
55202;SDS011;41077;52.956;6.796;2023-06-26T08:33:42;9.80;;;3.47;;
55202;SDS011;41077;52.956;6.796;2023-06-26T08:36:08;6.47;;;2.30;;
55202;SDS011;41077;52.956;6.796;2023-06-26T08:38:33;7.43;;;2.63;;
55202;SDS011;41077;52.956;6.796;2023-06-26T08:40:59;6.75;;;2.17;;
55202;SDS011;41077;52.956;6.796;2023-06-26T08:43:25;11.10;;;2.10;;
55202;SDS011;41077;52.956;6.796;2023-06-26T08:45:52;29.23;;;5.28;;
55202;SDS011;41077;52.956;6.796;2023-06-26T08:48:18;7.15;;;2.70;;
55202;SDS011;41077;52.956;6.796;2023-06-26T08:50:45;8.40;;;2.50;;
55202;SDS011;41077;52.956;6.796;2023-06-26T08:53:21;6.80;;;2.42;;
55202;SDS011;41077;52.956;6.796;2023-06-26T08:58:17;2.15;;;1.45;;
55202;SDS011;41077;52.956;6.796;2023-06-26T09:00:46;3.60;;;1.60;;
55202;SDS011;41077;52.956;6.796;2023-06-26T09:03:11;9.65;;;2.72;;
55202;SDS011;41077;52.956;6.796;2023-06-26T09:05:38;3.90;;;1.67;;
55202;SDS011;41077;52.956;6.796;2023-06-26T09:08:04;6.10;;;2.08;;
55202;SDS011;41077;52.956;6.796;2023-06-26T09:10:30;6.72;;;2.33;;
55202;SDS011;41077;52.956;6.796;2023-06-26T09:12:57;4.18;;;1.88;;
55202;SDS011;41077;52.956;6.796;2023-06-26T09:15:23;7.38;;;2.00;;
55202;SDS011;41077;52.956;6.796;2023-06-26T09:17:49;5.50;;;2.15;;
55202;SDS011;41077;52.956;6.796;2023-06-26T09:20:20;6.10;;;2.53;;
55202;SDS011;41077;52.956;6.796;2023-06-26T09:22:47;4.78;;;2.70;;
55202;SDS011;41077;52.956;6.796;2023-06-26T09:25:13;4.93;;;2.08;;
55202;SDS011;41077;52.956;6.796;2023-06-26T09:27:39;5.15;;;2.00;;
55202;SDS011;41077;52.956;6.796;2023-06-26T09:30:05;5.57;;;2.30;;
55202;SDS011;41077;52.956;6.796;2023-06-26T09:32:37;9.82;;;2.35;;
55202;SDS011;41077;52.956;6.796;2023-06-26T09:35:05;6.28;;;2.20;;
55202;SDS011;41077;52.956;6.796;2023-06-26T09:37:32;8.52;;;2.35;;
55202;SDS011;41077;52.956;6.796;2023-06-26T09:39:59;5.85;;;2.42;;
55202;SDS011;41077;52.956;6.796;2023-06-26T09:42:25;5.65;;;2.50;;
55202;SDS011;41077;52.956;6.796;2023-06-26T09:44:50;5.75;;;2.60;;
55202;SDS011;41077;52.956;6.796;2023-06-26T09:47:16;6.38;;;2.50;;
55202;SDS011;41077;52.956;6.796;2023-06-26T09:49:45;10.10;;;3.50;;
55202;SDS011;41077;52.956;6.796;2023-06-26T09:52:14;6.88;;;2.70;;
55202;SDS011;41077;52.956;6.796;2023-06-26T09:54:42;6.30;;;2.50;;
55202;SDS011;41077;52.956;6.796;2023-06-26T09:57:17;6.38;;;2.33;;
55202;SDS011;41077;52.956;6.796;2023-06-26T09:59:44;6.90;;;2.47;;
55202;SDS011;41077;52.956;6.796;2023-06-26T10:02:10;7.68;;;2.75;;
55202;SDS011;41077;52.956;6.796;2023-06-26T10:04:37;7.43;;;2.42;;
55202;SDS011;41077;52.956;6.796;2023-06-26T10:07:06;4.05;;;2.38;;
55202;SDS011;41077;52.956;6.796;2023-06-26T10:09:40;4.72;;;2.22;;
55202;SDS011;41077;52.956;6.796;2023-06-26T10:12:18;8.00;;;2.65;;
55202;SDS011;41077;52.956;6.796;2023-06-26T10:14:47;5.45;;;2.35;;
55202;SDS011;41077;52.956;6.796;2023-06-26T10:17:19;5.82;;;2.50;;
55202;SDS011;41077;52.956;6.796;2023-06-26T10:19:48;3.78;;;1.88;;
55202;SDS011;41077;52.956;6.796;2023-06-26T10:22:16;6.30;;;2.13;;
55202;SDS011;41077;52.956;6.796;2023-06-26T10:24:43;4.72;;;2.05;;
55202;SDS011;41077;52.956;6.796;2023-06-26T10:27:14;3.58;;;1.90;;
55202;SDS011;41077;52.956;6.796;2023-06-26T10:29:44;4.55;;;2.03;;
55202;SDS011;41077;52.956;6.796;2023-06-26T10:32:23;5.07;;;1.80;;
55202;SDS011;41077;52.956;6.796;2023-06-26T10:34:51;5.07;;;2.20;;
55202;SDS011;41077;52.956;6.796;2023-06-26T10:37:18;6.22;;;2.20;;
55202;SDS011;41077;52.956;6.796;2023-06-26T10:42:16;5.45;;;2.30;;
55202;SDS011;41077;52.956;6.796;2023-06-26T10:44:44;5.72;;;2.60;;
55202;SDS011;41077;52.956;6.796;2023-06-26T10:47:12;6.70;;;2.67;;
55202;SDS011;41077;52.956;6.796;2023-06-26T10:50:15;5.10;;;2.78;;
55202;SDS011;41077;52.956;6.796;2023-06-26T10:52:45;8.30;;;2.70;;
55202;SDS011;41077;52.956;6.796;2023-06-26T10:55:11;4.13;;;2.30;;
55202;SDS011;41077;52.956;6.796;2023-06-26T10:57:38;13.23;;;3.13;;
55202;SDS011;41077;52.956;6.796;2023-06-26T11:00:08;7.28;;;2.53;;
55202;SDS011;41077;52.956;6.796;2023-06-26T11:02:48;4.20;;;2.00;;
55202;SDS011;41077;52.956;6.796;2023-06-26T11:05:28;10.70;;;2.47;;
55202;SDS011;41077;52.956;6.796;2023-06-26T11:10:52;5.20;;;2.50;;
55202;SDS011;41077;52.956;6.796;2023-06-26T11:13:20;7.03;;;2.17;;
55202;SDS011;41077;52.956;6.796;2023-06-26T11:15:49;9.65;;;2.10;;
55202;SDS011;41077;52.956;6.796;2023-06-26T11:18:15;5.55;;;2.03;;
55202;SDS011;41077;52.956;6.796;2023-06-26T11:20:41;5.80;;;2.15;;
55202;SDS011;41077;52.956;6.796;2023-06-26T11:23:08;5.20;;;1.95;;
55202;SDS011;41077;52.956;6.796;2023-06-26T11:25:34;4.95;;;2.35;;
55202;SDS011;41077;52.956;6.796;2023-06-26T11:28:02;3.38;;;1.83;;
55202;SDS011;41077;52.956;6.796;2023-06-26T11:30:29;8.52;;;2.45;;
55202;SDS011;41077;52.956;6.796;2023-06-26T11:33:08;4.13;;;2.15;;
55202;SDS011;41077;52.956;6.796;2023-06-26T11:35:35;4.28;;;2.13;;
55202;SDS011;41077;52.956;6.796;2023-06-26T11:38:01;6.00;;;1.95;;
55202;SDS011;41077;52.956;6.796;2023-06-26T11:40:32;8.15;;;2.67;;
55202;SDS011;41077;52.956;6.796;2023-06-26T11:42:59;6.45;;;2.00;;
55202;SDS011;41077;52.956;6.796;2023-06-26T11:45:30;3.88;;;2.03;;
55202;SDS011;41077;52.956;6.796;2023-06-26T11:47:57;5.93;;;2.10;;
55202;SDS011;41077;52.956;6.796;2023-06-26T11:50:24;5.20;;;2.33;;
55202;SDS011;41077;52.956;6.796;2023-06-26T11:52:57;7.30;;;1.85;;
55202;SDS011;41077;52.956;6.796;2023-06-26T11:55:24;3.92;;;1.73;;
55202;SDS011;41077;52.956;6.796;2023-06-26T11:57:56;4.90;;;1.45;;
55202;SDS011;41077;52.956;6.796;2023-06-26T12:00:22;4.47;;;1.45;;
55202;SDS011;41077;52.956;6.796;2023-06-26T12:02:48;6.80;;;2.60;;
55202;SDS011;41077;52.956;6.796;2023-06-26T12:05:17;6.60;;;2.25;;
55202;SDS011;41077;52.956;6.796;2023-06-26T12:07:44;5.97;;;1.70;;
55202;SDS011;41077;52.956;6.796;2023-06-26T12:10:12;5.38;;;1.80;;
55202;SDS011;41077;52.956;6.796;2023-06-26T12:12:40;4.63;;;2.00;;
55202;SDS011;41077;52.956;6.796;2023-06-26T12:15:07;4.65;;;1.45;;
55202;SDS011;41077;52.956;6.796;2023-06-26T12:17:37;4.63;;;1.58;;
55202;SDS011;41077;52.956;6.796;2023-06-26T12:20:23;4.65;;;1.42;;
55202;SDS011;41077;52.956;6.796;2023-06-26T12:22:50;3.70;;;1.33;;
55202;SDS011;41077;52.956;6.796;2023-06-26T12:25:21;5.97;;;1.80;;
55202;SDS011;41077;52.956;6.796;2023-06-26T12:27:48;4.65;;;1.73;;
55202;SDS011;41077;52.956;6.796;2023-06-26T12:30:15;4.78;;;1.10;;
55202;SDS011;41077;52.956;6.796;2023-06-26T12:32:44;3.80;;;1.60;;
55202;SDS011;41077;52.956;6.796;2023-06-26T12:35:11;7.60;;;1.88;;
55202;SDS011;41077;52.956;6.796;2023-06-26T12:37:37;3.00;;;1.20;;
55202;SDS011;41077;52.956;6.796;2023-06-26T12:40:15;4.07;;;1.95;;
55202;SDS011;41077;52.956;6.796;2023-06-26T12:42:42;8.18;;;1.60;;
55202;SDS011;41077;52.956;6.796;2023-06-26T12:45:11;5.85;;;2.00;;
55202;SDS011;41077;52.956;6.796;2023-06-26T12:47:38;3.88;;;1.70;;
55202;SDS011;41077;52.956;6.796;2023-06-26T12:50:06;7.93;;;1.70;;
55202;SDS011;41077;52.956;6.796;2023-06-26T12:52:32;8.40;;;1.30;;
55202;SDS011;41077;52.956;6.796;2023-06-26T12:54:58;10.30;;;1.88;;
55202;SDS011;41077;52.956;6.796;2023-06-26T12:57:23;7.10;;;1.40;;
55202;SDS011;41077;52.956;6.796;2023-06-26T12:59:49;6.47;;;2.00;;
55202;SDS011;41077;52.956;6.796;2023-06-26T13:02:15;8.30;;;1.90;;
55202;SDS011;41077;52.956;6.796;2023-06-26T13:04:40;6.28;;;1.50;;
55202;SDS011;41077;52.956;6.796;2023-06-26T13:07:07;16.17;;;2.25;;
55202;SDS011;41077;52.956;6.796;2023-06-26T13:09:33;10.52;;;2.00;;
55202;SDS011;41077;52.956;6.796;2023-06-26T13:12:00;10.07;;;2.08;;
55202;SDS011;41077;52.956;6.796;2023-06-26T13:14:27;9.15;;;2.15;;
55202;SDS011;41077;52.956;6.796;2023-06-26T13:16:53;5.03;;;1.20;;
55202;SDS011;41077;52.956;6.796;2023-06-26T13:19:18;16.58;;;2.08;;
55202;SDS011;41077;52.956;6.796;2023-06-26T13:21:44;7.18;;;2.05;;
55202;SDS011;41077;52.956;6.796;2023-06-26T13:24:10;8.20;;;2.60;;
55202;SDS011;41077;52.956;6.796;2023-06-26T13:26:36;7.72;;;2.15;;
55202;SDS011;41077;52.956;6.796;2023-06-26T13:29:01;5.55;;;1.50;;
55202;SDS011;41077;52.956;6.796;2023-06-26T13:31:28;6.53;;;1.60;;
55202;SDS011;41077;52.956;6.796;2023-06-26T13:33:56;6.18;;;1.90;;
55202;SDS011;41077;52.956;6.796;2023-06-26T13:36:31;9.15;;;1.70;;
55202;SDS011;41077;52.956;6.796;2023-06-26T13:39:00;6.70;;;1.70;;
55202;SDS011;41077;52.956;6.796;2023-06-26T13:41:27;5.40;;;1.83;;
55202;SDS011;41077;52.956;6.796;2023-06-26T13:43:53;6.32;;;1.65;;
55202;SDS011;41077;52.956;6.796;2023-06-26T13:46:19;9.02;;;1.65;;
55202;SDS011;41077;52.956;6.796;2023-06-26T13:48:45;7.60;;;1.50;;
55202;SDS011;41077;52.956;6.796;2023-06-26T13:51:11;8.05;;;1.80;;
55202;SDS011;41077;52.956;6.796;2023-06-26T13:53:36;6.25;;;1.70;;
55202;SDS011;41077;52.956;6.796;2023-06-26T13:56:02;11.00;;;1.88;;
55202;SDS011;41077;52.956;6.796;2023-06-26T13:58:28;4.60;;;1.50;;
55202;SDS011;41077;52.956;6.796;2023-06-26T14:00:57;6.00;;;1.80;;
55202;SDS011;41077;52.956;6.796;2023-06-26T14:03:23;4.30;;;1.30;;
55202;SDS011;41077;52.956;6.796;2023-06-26T14:05:49;3.92;;;1.38;;
55202;SDS011;41077;52.956;6.796;2023-06-26T14:08:14;5.53;;;1.48;;
55202;SDS011;41077;52.956;6.796;2023-06-26T14:10:40;5.75;;;1.50;;
55202;SDS011;41077;52.956;6.796;2023-06-26T14:13:06;5.20;;;1.50;;
55202;SDS011;41077;52.956;6.796;2023-06-26T14:15:33;4.13;;;1.60;;
55202;SDS011;41077;52.956;6.796;2023-06-26T14:18:00;4.97;;;1.30;;
55202;SDS011;41077;52.956;6.796;2023-06-26T14:20:27;5.88;;;1.90;;
55202;SDS011;41077;52.956;6.796;2023-06-26T14:22:53;8.07;;;1.77;;
55202;SDS011;41077;52.956;6.796;2023-06-26T14:25:19;5.63;;;1.63;;
55202;SDS011;41077;52.956;6.796;2023-06-26T14:27:45;6.97;;;2.00;;
55202;SDS011;41077;52.956;6.796;2023-06-26T14:30:10;4.72;;;1.83;;
55202;SDS011;41077;52.956;6.796;2023-06-26T14:32:36;5.72;;;1.73;;
55202;SDS011;41077;52.956;6.796;2023-06-26T14:35:02;5.63;;;2.00;;
55202;SDS011;41077;52.956;6.796;2023-06-26T14:37:29;3.08;;;1.58;;
55202;SDS011;41077;52.956;6.796;2023-06-26T14:39:55;3.75;;;1.10;;
55202;SDS011;41077;52.956;6.796;2023-06-26T14:42:21;3.75;;;1.35;;
55202;SDS011;41077;52.956;6.796;2023-06-26T14:44:46;3.38;;;1.15;;
55202;SDS011;41077;52.956;6.796;2023-06-26T14:47:15;4.47;;;1.60;;
55202;SDS011;41077;52.956;6.796;2023-06-26T14:49:40;5.72;;;2.85;;
55202;SDS011;41077;52.956;6.796;2023-06-26T14:52:06;3.80;;;1.52;;
55202;SDS011;41077;52.956;6.796;2023-06-26T14:54:32;6.35;;;1.45;;
55202;SDS011;41077;52.956;6.796;2023-06-26T14:56:58;4.65;;;1.30;;
55202;SDS011;41077;52.956;6.796;2023-06-26T14:59:25;3.70;;;1.52;;
55202;SDS011;41077;52.956;6.796;2023-06-26T15:01:51;5.50;;;1.77;;